sensor_id;sensor_type;location;lat;lon;timestamp;P1;durP1;ratioP1;P2;durP2;ratioP2
7817;SDS011;3954;52.624;9.212;2023-06-14T00:00:43;2.80;;;1.90;;
7817;SDS011;3954;52.624;9.212;2023-06-14T00:03:10;3.23;;;2.00;;
7817;SDS011;3954;52.624;9.212;2023-06-14T00:05:36;2.13;;;1.93;;
7817;SDS011;3954;52.624;9.212;2023-06-14T00:08:06;2.53;;;2.30;;
7817;SDS011;3954;52.624;9.212;2023-06-14T00:10:34;4.37;;;2.00;;
7817;SDS011;3954;52.624;9.212;2023-06-14T00:13:00;2.93;;;2.30;;
7817;SDS011;3954;52.624;9.212;2023-06-14T00:15:26;4.90;;;2.20;;
7817;SDS011;3954;52.624;9.212;2023-06-14T00:17:53;2.63;;;2.00;;
7817;SDS011;3954;52.624;9.212;2023-06-14T00:20:19;6.50;;;2.67;;
7817;SDS011;3954;52.624;9.212;2023-06-14T00:22:45;2.10;;;1.90;;
7817;SDS011;3954;52.624;9.212;2023-06-14T00:25:13;4.23;;;2.20;;
7817;SDS011;3954;52.624;9.212;2023-06-14T00:27:40;3.03;;;2.20;;
7817;SDS011;3954;52.624;9.212;2023-06-14T00:30:06;3.90;;;2.57;;
7817;SDS011;3954;52.624;9.212;2023-06-14T00:32:33;3.57;;;2.23;;
7817;SDS011;3954;52.624;9.212;2023-06-14T00:34:58;2.47;;;2.27;;
7817;SDS011;3954;52.624;9.212;2023-06-14T00:37:24;3.53;;;2.33;;
7817;SDS011;3954;52.624;9.212;2023-06-14T00:39:50;3.77;;;2.27;;
7817;SDS011;3954;52.624;9.212;2023-06-14T00:42:23;2.80;;;2.30;;
7817;SDS011;3954;52.624;9.212;2023-06-14T00:44:51;4.83;;;1.97;;
7817;SDS011;3954;52.624;9.212;2023-06-14T00:47:17;3.97;;;2.13;;
7817;SDS011;3954;52.624;9.212;2023-06-14T00:49:44;2.40;;;2.10;;
7817;SDS011;3954;52.624;9.212;2023-06-14T00:52:10;2.53;;;1.97;;
7817;SDS011;3954;52.624;9.212;2023-06-14T00:54:37;4.30;;;2.07;;
7817;SDS011;3954;52.624;9.212;2023-06-14T00:57:03;3.50;;;2.50;;
7817;SDS011;3954;52.624;9.212;2023-06-14T00:59:29;6.20;;;2.07;;
7817;SDS011;3954;52.624;9.212;2023-06-14T01:01:57;5.03;;;2.57;;
7817;SDS011;3954;52.624;9.212;2023-06-14T01:04:23;3.43;;;2.10;;
7817;SDS011;3954;52.624;9.212;2023-06-14T01:06:50;3.80;;;2.37;;
7817;SDS011;3954;52.624;9.212;2023-06-14T01:09:20;4.37;;;2.40;;
7817;SDS011;3954;52.624;9.212;2023-06-14T01:11:49;4.27;;;2.87;;
7817;SDS011;3954;52.624;9.212;2023-06-14T01:14:16;2.93;;;2.03;;
7817;SDS011;3954;52.624;9.212;2023-06-14T01:16:43;3.33;;;2.23;;
7817;SDS011;3954;52.624;9.212;2023-06-14T01:19:11;4.60;;;2.77;;
7817;SDS011;3954;52.624;9.212;2023-06-14T01:21:38;2.57;;;2.37;;
7817;SDS011;3954;52.624;9.212;2023-06-14T01:24:08;4.63;;;2.87;;
7817;SDS011;3954;52.624;9.212;2023-06-14T01:26:34;5.10;;;2.30;;
7817;SDS011;3954;52.624;9.212;2023-06-14T01:29:02;4.87;;;2.57;;
7817;SDS011;3954;52.624;9.212;2023-06-14T01:31:29;3.50;;;2.33;;
7817;SDS011;3954;52.624;9.212;2023-06-14T01:34:04;3.30;;;2.67;;
7817;SDS011;3954;52.624;9.212;2023-06-14T01:36:31;4.87;;;2.47;;
7817;SDS011;3954;52.624;9.212;2023-06-14T01:38:57;4.07;;;2.20;;
7817;SDS011;3954;52.624;9.212;2023-06-14T01:41:26;2.53;;;2.33;;
7817;SDS011;3954;52.624;9.212;2023-06-14T01:43:52;3.27;;;2.40;;
7817;SDS011;3954;52.624;9.212;2023-06-14T01:46:19;4.27;;;2.30;;
7817;SDS011;3954;52.624;9.212;2023-06-14T01:48:45;2.23;;;2.03;;
7817;SDS011;3954;52.624;9.212;2023-06-14T01:51:11;3.73;;;2.23;;
7817;SDS011;3954;52.624;9.212;2023-06-14T01:53:37;3.27;;;2.43;;
7817;SDS011;3954;52.624;9.212;2023-06-14T01:56:04;2.93;;;2.60;;
7817;SDS011;3954;52.624;9.212;2023-06-14T01:58:31;4.70;;;2.70;;
7817;SDS011;3954;52.624;9.212;2023-06-14T02:00:58;4.70;;;2.57;;
7817;SDS011;3954;52.624;9.212;2023-06-14T02:03:25;2.43;;;2.23;;
7817;SDS011;3954;52.624;9.212;2023-06-14T02:05:52;6.50;;;2.63;;
7817;SDS011;3954;52.624;9.212;2023-06-14T02:08:19;4.87;;;2.60;;
7817;SDS011;3954;52.624;9.212;2023-06-14T02:10:45;4.40;;;2.17;;
7817;SDS011;3954;52.624;9.212;2023-06-14T02:13:11;4.20;;;2.53;;
7817;SDS011;3954;52.624;9.212;2023-06-14T02:15:38;3.20;;;2.37;;
7817;SDS011;3954;52.624;9.212;2023-06-14T02:18:05;2.83;;;2.53;;
7817;SDS011;3954;52.624;9.212;2023-06-14T02:20:31;3.17;;;2.53;;
7817;SDS011;3954;52.624;9.212;2023-06-14T02:22:57;3.63;;;2.70;;
7817;SDS011;3954;52.624;9.212;2023-06-14T02:25:23;2.87;;;2.50;;
7817;SDS011;3954;52.624;9.212;2023-06-14T02:27:49;2.87;;;2.60;;
7817;SDS011;3954;52.624;9.212;2023-06-14T02:30:15;3.53;;;3.03;;
7817;SDS011;3954;52.624;9.212;2023-06-14T02:32:42;4.43;;;2.40;;
7817;SDS011;3954;52.624;9.212;2023-06-14T02:35:08;3.43;;;2.50;;
7817;SDS011;3954;52.624;9.212;2023-06-14T02:37:35;3.47;;;2.67;;
7817;SDS011;3954;52.624;9.212;2023-06-14T02:40:01;4.03;;;2.53;;
7817;SDS011;3954;52.624;9.212;2023-06-14T02:42:27;4.80;;;2.60;;
7817;SDS011;3954;52.624;9.212;2023-06-14T02:44:53;2.63;;;2.43;;
7817;SDS011;3954;52.624;9.212;2023-06-14T02:47:19;2.40;;;2.20;;
7817;SDS011;3954;52.624;9.212;2023-06-14T02:49:46;3.27;;;2.40;;
7817;SDS011;3954;52.624;9.212;2023-06-14T02:52:12;2.57;;;2.37;;
7817;SDS011;3954;52.624;9.212;2023-06-14T02:54:38;11.00;;;3.20;;
7817;SDS011;3954;52.624;9.212;2023-06-14T02:57:05;4.23;;;2.80;;
7817;SDS011;3954;52.624;9.212;2023-06-14T02:59:32;5.30;;;2.80;;
7817;SDS011;3954;52.624;9.212;2023-06-14T03:01:58;3.37;;;2.80;;
7817;SDS011;3954;52.624;9.212;2023-06-14T03:04:24;3.87;;;2.47;;
7817;SDS011;3954;52.624;9.212;2023-06-14T03:06:52;2.83;;;2.53;;
7817;SDS011;3954;52.624;9.212;2023-06-14T03:09:18;3.00;;;2.23;;
7817;SDS011;3954;52.624;9.212;2023-06-14T03:11:44;2.50;;;2.30;;
7817;SDS011;3954;52.624;9.212;2023-06-14T03:14:10;2.73;;;2.50;;
7817;SDS011;3954;52.624;9.212;2023-06-14T03:16:38;4.17;;;2.80;;
7817;SDS011;3954;52.624;9.212;2023-06-14T03:19:04;3.63;;;2.57;;
7817;SDS011;3954;52.624;9.212;2023-06-14T03:21:30;3.80;;;2.60;;
7817;SDS011;3954;52.624;9.212;2023-06-14T03:23:58;3.53;;;2.33;;
7817;SDS011;3954;52.624;9.212;2023-06-14T03:26:24;7.60;;;2.63;;
7817;SDS011;3954;52.624;9.212;2023-06-14T03:28:50;3.83;;;2.87;;
7817;SDS011;3954;52.624;9.212;2023-06-14T03:31:16;4.33;;;3.20;;
7817;SDS011;3954;52.624;9.212;2023-06-14T03:33:44;4.27;;;3.63;;
7817;SDS011;3954;52.624;9.212;2023-06-14T03:36:10;6.57;;;3.67;;
7817;SDS011;3954;52.624;9.212;2023-06-14T03:38:36;6.90;;;4.17;;
7817;SDS011;3954;52.624;9.212;2023-06-14T03:41:03;9.07;;;3.87;;
7817;SDS011;3954;52.624;9.212;2023-06-14T03:43:29;7.10;;;3.80;;
7817;SDS011;3954;52.624;9.212;2023-06-14T03:45:55;5.13;;;3.73;;
7817;SDS011;3954;52.624;9.212;2023-06-14T03:48:21;5.63;;;3.47;;
7817;SDS011;3954;52.624;9.212;2023-06-14T03:50:47;5.20;;;3.40;;
7817;SDS011;3954;52.624;9.212;2023-06-14T03:53:13;4.57;;;3.03;;
7817;SDS011;3954;52.624;9.212;2023-06-14T03:55:39;7.50;;;2.93;;
7817;SDS011;3954;52.624;9.212;2023-06-14T03:58:07;4.37;;;2.77;;
7817;SDS011;3954;52.624;9.212;2023-06-14T04:00:33;4.03;;;3.07;;
7817;SDS011;3954;52.624;9.212;2023-06-14T04:03:00;4.37;;;2.97;;
7817;SDS011;3954;52.624;9.212;2023-06-14T04:05:28;6.63;;;3.23;;
7817;SDS011;3954;52.624;9.212;2023-06-14T04:07:54;4.40;;;3.30;;
7817;SDS011;3954;52.624;9.212;2023-06-14T04:10:20;6.23;;;3.57;;
7817;SDS011;3954;52.624;9.212;2023-06-14T04:12:46;3.37;;;2.67;;
7817;SDS011;3954;52.624;9.212;2023-06-14T04:15:14;3.30;;;2.80;;
7817;SDS011;3954;52.624;9.212;2023-06-14T04:17:40;5.70;;;2.57;;
7817;SDS011;3954;52.624;9.212;2023-06-14T04:20:06;5.10;;;2.83;;
7817;SDS011;3954;52.624;9.212;2023-06-14T04:22:35;3.10;;;2.80;;
7817;SDS011;3954;52.624;9.212;2023-06-14T04:25:02;4.73;;;2.57;;
7817;SDS011;3954;52.624;9.212;2023-06-14T04:27:28;4.30;;;2.90;;
7817;SDS011;3954;52.624;9.212;2023-06-14T04:29:56;3.37;;;2.70;;
7817;SDS011;3954;52.624;9.212;2023-06-14T04:32:24;4.33;;;2.37;;
7817;SDS011;3954;52.624;9.212;2023-06-14T04:34:51;2.97;;;2.67;;
7817;SDS011;3954;52.624;9.212;2023-06-14T04:37:18;4.47;;;2.67;;
7817;SDS011;3954;52.624;9.212;2023-06-14T04:39:46;4.93;;;3.00;;
7817;SDS011;3954;52.624;9.212;2023-06-14T04:42:12;3.03;;;2.73;;
7817;SDS011;3954;52.624;9.212;2023-06-14T04:44:39;2.50;;;2.30;;
7817;SDS011;3954;52.624;9.212;2023-06-14T04:47:06;4.07;;;3.00;;
7817;SDS011;3954;52.624;9.212;2023-06-14T04:49:33;2.93;;;2.63;;
7817;SDS011;3954;52.624;9.212;2023-06-14T04:51:59;3.30;;;2.80;;
7817;SDS011;3954;52.624;9.212;2023-06-14T04:54:26;4.37;;;2.70;;
7817;SDS011;3954;52.624;9.212;2023-06-14T04:56:52;2.83;;;2.53;;
7817;SDS011;3954;52.624;9.212;2023-06-14T04:59:20;4.50;;;2.73;;
7817;SDS011;3954;52.624;9.212;2023-06-14T05:01:47;3.00;;;2.70;;
7817;SDS011;3954;52.624;9.212;2023-06-14T05:04:14;5.53;;;2.83;;
7817;SDS011;3954;52.624;9.212;2023-06-14T05:06:41;2.90;;;2.60;;
7817;SDS011;3954;52.624;9.212;2023-06-14T05:09:09;9.60;;;2.70;;
7817;SDS011;3954;52.624;9.212;2023-06-14T05:11:35;3.10;;;2.60;;
7817;SDS011;3954;52.624;9.212;2023-06-14T05:14:01;3.00;;;2.47;;
7817;SDS011;3954;52.624;9.212;2023-06-14T05:16:27;3.00;;;2.40;;
7817;SDS011;3954;52.624;9.212;2023-06-14T05:18:54;6.67;;;2.40;;
7817;SDS011;3954;52.624;9.212;2023-06-14T05:21:20;3.60;;;2.77;;
7817;SDS011;3954;52.624;9.212;2023-06-14T05:23:47;4.30;;;2.40;;
7817;SDS011;3954;52.624;9.212;2023-06-14T05:26:14;2.77;;;2.57;;
7817;SDS011;3954;52.624;9.212;2023-06-14T05:28:40;2.43;;;2.20;;
7817;SDS011;3954;52.624;9.212;2023-06-14T05:31:06;4.23;;;2.83;;
7817;SDS011;3954;52.624;9.212;2023-06-14T05:33:32;2.83;;;2.40;;
7817;SDS011;3954;52.624;9.212;2023-06-14T05:35:58;4.70;;;2.50;;
7817;SDS011;3954;52.624;9.212;2023-06-14T05:38:24;3.80;;;2.20;;
7817;SDS011;3954;52.624;9.212;2023-06-14T05:40:51;2.40;;;2.20;;
7817;SDS011;3954;52.624;9.212;2023-06-14T05:43:19;2.70;;;2.30;;
7817;SDS011;3954;52.624;9.212;2023-06-14T05:45:45;2.33;;;2.13;;
7817;SDS011;3954;52.624;9.212;2023-06-14T05:48:11;3.60;;;2.33;;
7817;SDS011;3954;52.624;9.212;2023-06-14T05:50:37;2.80;;;2.27;;
7817;SDS011;3954;52.624;9.212;2023-06-14T05:53:02;2.93;;;2.00;;
7817;SDS011;3954;52.624;9.212;2023-06-14T05:55:28;2.43;;;2.23;;
7817;SDS011;3954;52.624;9.212;2023-06-14T05:57:56;3.23;;;2.10;;
7817;SDS011;3954;52.624;9.212;2023-06-14T06:00:22;4.57;;;2.00;;
7817;SDS011;3954;52.624;9.212;2023-06-14T06:02:48;3.67;;;2.00;;
7817;SDS011;3954;52.624;9.212;2023-06-14T06:05:14;3.40;;;2.13;;
7817;SDS011;3954;52.624;9.212;2023-06-14T06:07:40;2.53;;;1.70;;
7817;SDS011;3954;52.624;9.212;2023-06-14T06:10:07;2.10;;;1.90;;
7817;SDS011;3954;52.624;9.212;2023-06-14T06:12:33;2.93;;;2.00;;
7817;SDS011;3954;52.624;9.212;2023-06-14T06:15:00;2.67;;;1.97;;
7817;SDS011;3954;52.624;9.212;2023-06-14T06:17:26;1.90;;;1.80;;
7817;SDS011;3954;52.624;9.212;2023-06-14T06:19:52;3.67;;;2.13;;
7817;SDS011;3954;52.624;9.212;2023-06-14T06:22:18;3.90;;;2.10;;
7817;SDS011;3954;52.624;9.212;2023-06-14T06:24:44;2.37;;;2.00;;
7817;SDS011;3954;52.624;9.212;2023-06-14T06:27:11;2.20;;;2.00;;
7817;SDS011;3954;52.624;9.212;2023-06-14T06:29:37;3.20;;;2.20;;
7817;SDS011;3954;52.624;9.212;2023-06-14T06:32:05;3.00;;;2.10;;
7817;SDS011;3954;52.624;9.212;2023-06-14T06:34:31;2.13;;;1.93;;
7817;SDS011;3954;52.624;9.212;2023-06-14T06:36:57;2.40;;;1.97;;
7817;SDS011;3954;52.624;9.212;2023-06-14T06:39:23;4.40;;;2.10;;
7817;SDS011;3954;52.624;9.212;2023-06-14T06:41:51;2.30;;;2.10;;
7817;SDS011;3954;52.624;9.212;2023-06-14T06:44:16;2.50;;;2.07;;
7817;SDS011;3954;52.624;9.212;2023-06-14T06:46:43;2.40;;;2.13;;
7817;SDS011;3954;52.624;9.212;2023-06-14T06:49:10;2.47;;;2.00;;
7817;SDS011;3954;52.624;9.212;2023-06-14T06:51:40;2.40;;;2.03;;
7817;SDS011;3954;52.624;9.212;2023-06-14T06:54:10;4.10;;;2.30;;
7817;SDS011;3954;52.624;9.212;2023-06-14T06:56:36;2.23;;;2.03;;
7817;SDS011;3954;52.624;9.212;2023-06-14T06:59:02;2.43;;;1.80;;
7817;SDS011;3954;52.624;9.212;2023-06-14T07:01:28;4.47;;;1.80;;
7817;SDS011;3954;52.624;9.212;2023-06-14T07:03:54;1.70;;;1.60;;
7817;SDS011;3954;52.624;9.212;2023-06-14T07:06:22;4.67;;;2.00;;
7817;SDS011;3954;52.624;9.212;2023-06-14T07:08:52;2.30;;;1.93;;
7817;SDS011;3954;52.624;9.212;2023-06-14T07:11:18;4.10;;;2.20;;
7817;SDS011;3954;52.624;9.212;2023-06-14T07:13:44;2.60;;;1.80;;
7817;SDS011;3954;52.624;9.212;2023-06-14T07:16:10;4.93;;;2.10;;
7817;SDS011;3954;52.624;9.212;2023-06-14T07:18:36;2.57;;;2.20;;
7817;SDS011;3954;52.624;9.212;2023-06-14T07:21:02;2.07;;;1.80;;
7817;SDS011;3954;52.624;9.212;2023-06-14T07:23:29;2.70;;;2.07;;
7817;SDS011;3954;52.624;9.212;2023-06-14T07:25:55;4.07;;;1.90;;
7817;SDS011;3954;52.624;9.212;2023-06-14T07:28:21;4.60;;;1.90;;
7817;SDS011;3954;52.624;9.212;2023-06-14T07:30:47;2.23;;;2.03;;
7817;SDS011;3954;52.624;9.212;2023-06-14T07:33:13;2.87;;;1.80;;
7817;SDS011;3954;52.624;9.212;2023-06-14T07:35:39;3.67;;;1.97;;
7817;SDS011;3954;52.624;9.212;2023-06-14T07:38:06;2.73;;;1.60;;
7817;SDS011;3954;52.624;9.212;2023-06-14T07:40:33;2.10;;;1.90;;
7817;SDS011;3954;52.624;9.212;2023-06-14T07:42:59;1.63;;;1.53;;
7817;SDS011;3954;52.624;9.212;2023-06-14T07:45:27;2.07;;;1.80;;
7817;SDS011;3954;52.624;9.212;2023-06-14T07:47:53;1.90;;;1.70;;
7817;SDS011;3954;52.624;9.212;2023-06-14T07:50:19;1.73;;;1.63;;
7817;SDS011;3954;52.624;9.212;2023-06-14T07:52:45;2.70;;;1.90;;
7817;SDS011;3954;52.624;9.212;2023-06-14T07:55:13;2.47;;;2.07;;
7817;SDS011;3954;52.624;9.212;2023-06-14T07:57:41;2.07;;;1.87;;
7817;SDS011;3954;52.624;9.212;2023-06-14T08:00:09;2.47;;;1.90;;
7817;SDS011;3954;52.624;9.212;2023-06-14T08:02:40;2.30;;;1.70;;
7817;SDS011;3954;52.624;9.212;2023-06-14T08:05:06;4.67;;;2.20;;
7817;SDS011;3954;52.624;9.212;2023-06-14T08:07:33;6.50;;;1.70;;
7817;SDS011;3954;52.624;9.212;2023-06-14T08:09:59;1.87;;;1.67;;
7817;SDS011;3954;52.624;9.212;2023-06-14T08:12:25;3.10;;;2.00;;
7817;SDS011;3954;52.624;9.212;2023-06-14T08:14:53;2.10;;;1.90;;
7817;SDS011;3954;52.624;9.212;2023-06-14T08:17:19;4.60;;;2.07;;
7817;SDS011;3954;52.624;9.212;2023-06-14T08:19:45;2.47;;;2.00;;
7817;SDS011;3954;52.624;9.212;2023-06-14T08:22:11;1.87;;;1.73;;
7817;SDS011;3954;52.624;9.212;2023-06-14T08:24:38;2.50;;;1.93;;
7817;SDS011;3954;52.624;9.212;2023-06-14T08:27:04;3.13;;;1.80;;
7817;SDS011;3954;52.624;9.212;2023-06-14T08:29:30;3.20;;;2.07;;
7817;SDS011;3954;52.624;9.212;2023-06-14T08:31:58;2.00;;;1.90;;
7817;SDS011;3954;52.624;9.212;2023-06-14T08:34:25;2.77;;;1.80;;
7817;SDS011;3954;52.624;9.212;2023-06-14T08:36:51;3.50;;;1.77;;
7817;SDS011;3954;52.624;9.212;2023-06-14T08:39:17;2.10;;;1.90;;
7817;SDS011;3954;52.624;9.212;2023-06-14T08:41:43;2.10;;;1.87;;
7817;SDS011;3954;52.624;9.212;2023-06-14T08:44:11;2.10;;;1.90;;
7817;SDS011;3954;52.624;9.212;2023-06-14T08:46:37;2.30;;;1.90;;
7817;SDS011;3954;52.624;9.212;2023-06-14T08:49:05;1.90;;;1.80;;
7817;SDS011;3954;52.624;9.212;2023-06-14T08:51:32;1.90;;;1.53;;
7817;SDS011;3954;52.624;9.212;2023-06-14T08:54:01;4.07;;;1.87;;
7817;SDS011;3954;52.624;9.212;2023-06-14T08:56:29;2.27;;;1.87;;
7817;SDS011;3954;52.624;9.212;2023-06-14T08:58:55;2.23;;;2.03;;
7817;SDS011;3954;52.624;9.212;2023-06-14T09:01:21;3.13;;;1.80;;
7817;SDS011;3954;52.624;9.212;2023-06-14T09:03:48;2.20;;;2.00;;
7817;SDS011;3954;52.624;9.212;2023-06-14T09:06:16;1.93;;;1.70;;
7817;SDS011;3954;52.624;9.212;2023-06-14T09:08:43;1.93;;;1.83;;
7817;SDS011;3954;52.624;9.212;2023-06-14T09:11:10;2.20;;;1.73;;
7817;SDS011;3954;52.624;9.212;2023-06-14T09:13:37;2.33;;;1.90;;
7817;SDS011;3954;52.624;9.212;2023-06-14T09:16:03;1.60;;;1.50;;
7817;SDS011;3954;52.624;9.212;2023-06-14T09:18:34;1.77;;;1.50;;
7817;SDS011;3954;52.624;9.212;2023-06-14T09:21:00;2.00;;;1.80;;
7817;SDS011;3954;52.624;9.212;2023-06-14T09:23:27;1.70;;;1.60;;
7817;SDS011;3954;52.624;9.212;2023-06-14T09:25:53;2.60;;;1.73;;
7817;SDS011;3954;52.624;9.212;2023-06-14T09:28:20;2.23;;;1.57;;
7817;SDS011;3954;52.624;9.212;2023-06-14T09:30:47;1.90;;;1.70;;
7817;SDS011;3954;52.624;9.212;2023-06-14T09:33:16;3.10;;;1.67;;
7817;SDS011;3954;52.624;9.212;2023-06-14T09:35:44;1.70;;;1.60;;
7817;SDS011;3954;52.624;9.212;2023-06-14T09:38:11;2.73;;;1.73;;
7817;SDS011;3954;52.624;9.212;2023-06-14T09:40:38;2.37;;;2.10;;
7817;SDS011;3954;52.624;9.212;2023-06-14T09:43:05;2.00;;;1.80;;
7817;SDS011;3954;52.624;9.212;2023-06-14T09:45:34;2.47;;;2.00;;
7817;SDS011;3954;52.624;9.212;2023-06-14T09:48:01;3.10;;;1.80;;
7817;SDS011;3954;52.624;9.212;2023-06-14T09:50:27;3.37;;;1.90;;
7817;SDS011;3954;52.624;9.212;2023-06-14T09:52:53;3.80;;;2.00;;
7817;SDS011;3954;52.624;9.212;2023-06-14T09:55:22;5.93;;;1.90;;
7817;SDS011;3954;52.624;9.212;2023-06-14T09:57:50;4.90;;;2.00;;
7817;SDS011;3954;52.624;9.212;2023-06-14T10:00:17;4.67;;;1.93;;
7817;SDS011;3954;52.624;9.212;2023-06-14T10:02:43;3.20;;;1.83;;
7817;SDS011;3954;52.624;9.212;2023-06-14T10:05:14;2.67;;;1.80;;
7817;SDS011;3954;52.624;9.212;2023-06-14T10:07:42;1.93;;;1.83;;
7817;SDS011;3954;52.624;9.212;2023-06-14T10:10:09;4.10;;;2.03;;
7817;SDS011;3954;52.624;9.212;2023-06-14T10:12:36;3.37;;;1.80;;
7817;SDS011;3954;52.624;9.212;2023-06-14T10:15:04;3.17;;;1.80;;
7817;SDS011;3954;52.624;9.212;2023-06-14T10:17:33;4.00;;;2.23;;
7817;SDS011;3954;52.624;9.212;2023-06-14T10:20:05;4.40;;;1.93;;
7817;SDS011;3954;52.624;9.212;2023-06-14T10:22:34;3.93;;;1.93;;
7817;SDS011;3954;52.624;9.212;2023-06-14T10:25:02;2.43;;;2.00;;
7817;SDS011;3954;52.624;9.212;2023-06-14T10:27:36;3.17;;;2.00;;
7817;SDS011;3954;52.624;9.212;2023-06-14T10:30:05;3.27;;;2.30;;
7817;SDS011;3954;52.624;9.212;2023-06-14T10:32:32;4.67;;;2.33;;
7817;SDS011;3954;52.624;9.212;2023-06-14T10:34:59;2.70;;;2.03;;
7817;SDS011;3954;52.624;9.212;2023-06-14T10:37:25;2.23;;;2.03;;
7817;SDS011;3954;52.624;9.212;2023-06-14T10:39:51;2.60;;;2.40;;
7817;SDS011;3954;52.624;9.212;2023-06-14T10:42:18;5.73;;;2.13;;
7817;SDS011;3954;52.624;9.212;2023-06-14T10:44:45;3.00;;;2.00;;
7817;SDS011;3954;52.624;9.212;2023-06-14T10:47:23;3.13;;;2.00;;
7817;SDS011;3954;52.624;9.212;2023-06-14T10:49:50;4.50;;;1.80;;
7817;SDS011;3954;52.624;9.212;2023-06-14T10:52:17;3.40;;;2.00;;
7817;SDS011;3954;52.624;9.212;2023-06-14T10:54:58;2.70;;;2.13;;
7817;SDS011;3954;52.624;9.212;2023-06-14T10:57:24;2.23;;;2.03;;
7817;SDS011;3954;52.624;9.212;2023-06-14T10:59:50;5.13;;;2.37;;
7817;SDS011;3954;52.624;9.212;2023-06-14T11:02:21;2.20;;;2.00;;
7817;SDS011;3954;52.624;9.212;2023-06-14T11:04:54;2.50;;;2.30;;
7817;SDS011;3954;52.624;9.212;2023-06-14T11:07:30;4.53;;;2.30;;
7817;SDS011;3954;52.624;9.212;2023-06-14T11:10:10;3.00;;;2.10;;
7817;SDS011;3954;52.624;9.212;2023-06-14T11:12:41;4.93;;;1.97;;
7817;SDS011;3954;52.624;9.212;2023-06-14T11:15:10;2.97;;;2.17;;
7817;SDS011;3954;52.624;9.212;2023-06-14T11:17:36;3.93;;;2.53;;
7817;SDS011;3954;52.624;9.212;2023-06-14T11:20:10;4.57;;;2.20;;
7817;SDS011;3954;52.624;9.212;2023-06-14T11:22:41;2.23;;;1.90;;
7817;SDS011;3954;52.624;9.212;2023-06-14T11:25:08;2.27;;;2.07;;
7817;SDS011;3954;52.624;9.212;2023-06-14T11:27:34;2.80;;;1.97;;
7817;SDS011;3954;52.624;9.212;2023-06-14T11:30:00;3.03;;;2.40;;
7817;SDS011;3954;52.624;9.212;2023-06-14T11:32:26;2.40;;;2.20;;
7817;SDS011;3954;52.624;9.212;2023-06-14T11:34:52;9.17;;;2.37;;
7817;SDS011;3954;52.624;9.212;2023-06-14T11:37:20;2.40;;;2.20;;
7817;SDS011;3954;52.624;9.212;2023-06-14T11:39:46;4.43;;;2.37;;
7817;SDS011;3954;52.624;9.212;2023-06-14T11:42:13;4.23;;;2.50;;
7817;SDS011;3954;52.624;9.212;2023-06-14T11:44:39;2.40;;;2.20;;
7817;SDS011;3954;52.624;9.212;2023-06-14T11:47:05;3.03;;;2.50;;
7817;SDS011;3954;52.624;9.212;2023-06-14T11:49:34;3.90;;;2.53;;
7817;SDS011;3954;52.624;9.212;2023-06-14T11:52:00;2.57;;;2.37;;
7817;SDS011;3954;52.624;9.212;2023-06-14T11:54:27;3.80;;;2.40;;
7817;SDS011;3954;52.624;9.212;2023-06-14T11:56:54;2.27;;;2.07;;
7817;SDS011;3954;52.624;9.212;2023-06-14T11:59:20;2.67;;;2.00;;
7817;SDS011;3954;52.624;9.212;2023-06-14T12:01:47;2.90;;;2.30;;
7817;SDS011;3954;52.624;9.212;2023-06-14T12:04:13;7.17;;;2.50;;
7817;SDS011;3954;52.624;9.212;2023-06-14T12:06:39;2.93;;;2.50;;
7817;SDS011;3954;52.624;9.212;2023-06-14T12:09:06;3.23;;;2.30;;
7817;SDS011;3954;52.624;9.212;2023-06-14T12:11:38;2.47;;;2.27;;
7817;SDS011;3954;52.624;9.212;2023-06-14T12:14:05;4.33;;;2.50;;
7817;SDS011;3954;52.624;9.212;2023-06-14T12:16:31;3.93;;;2.53;;
7817;SDS011;3954;52.624;9.212;2023-06-14T12:18:59;4.30;;;2.80;;
7817;SDS011;3954;52.624;9.212;2023-06-14T12:21:26;3.43;;;2.17;;
7817;SDS011;3954;52.624;9.212;2023-06-14T12:23:54;4.77;;;2.20;;
7817;SDS011;3954;52.624;9.212;2023-06-14T12:26:20;3.83;;;2.43;;
7817;SDS011;3954;52.624;9.212;2023-06-14T12:28:47;4.70;;;2.50;;
7817;SDS011;3954;52.624;9.212;2023-06-14T12:31:14;3.07;;;2.30;;
7817;SDS011;3954;52.624;9.212;2023-06-14T12:33:41;3.77;;;2.47;;
7817;SDS011;3954;52.624;9.212;2023-06-14T12:36:07;5.13;;;2.50;;
7817;SDS011;3954;52.624;9.212;2023-06-14T12:38:34;2.90;;;2.30;;
7817;SDS011;3954;52.624;9.212;2023-06-14T12:41:00;2.80;;;2.43;;
7817;SDS011;3954;52.624;9.212;2023-06-14T12:43:26;3.27;;;2.37;;
7817;SDS011;3954;52.624;9.212;2023-06-14T12:45:54;4.97;;;2.20;;
7817;SDS011;3954;52.624;9.212;2023-06-14T12:48:20;3.13;;;2.70;;
7817;SDS011;3954;52.624;9.212;2023-06-14T12:50:46;4.70;;;2.60;;
7817;SDS011;3954;52.624;9.212;2023-06-14T12:53:12;4.60;;;2.63;;
7817;SDS011;3954;52.624;9.212;2023-06-14T12:55:38;2.80;;;2.37;;
7817;SDS011;3954;52.624;9.212;2023-06-14T12:58:04;5.10;;;2.67;;
7817;SDS011;3954;52.624;9.212;2023-06-14T13:00:30;7.07;;;2.33;;
7817;SDS011;3954;52.624;9.212;2023-06-14T13:02:57;2.60;;;2.40;;
7817;SDS011;3954;52.624;9.212;2023-06-14T13:05:23;3.03;;;2.40;;
7817;SDS011;3954;52.624;9.212;2023-06-14T13:07:49;6.63;;;2.70;;
7817;SDS011;3954;52.624;9.212;2023-06-14T13:10:15;7.83;;;2.93;;
7817;SDS011;3954;52.624;9.212;2023-06-14T13:12:42;3.97;;;2.40;;
7817;SDS011;3954;52.624;9.212;2023-06-14T13:15:08;5.27;;;2.40;;
7817;SDS011;3954;52.624;9.212;2023-06-14T13:17:34;3.97;;;2.40;;
7817;SDS011;3954;52.624;9.212;2023-06-14T13:20:05;4.57;;;2.70;;
7817;SDS011;3954;52.624;9.212;2023-06-14T13:22:32;4.00;;;2.60;;
7817;SDS011;3954;52.624;9.212;2023-06-14T13:24:58;4.90;;;2.50;;
7817;SDS011;3954;52.624;9.212;2023-06-14T13:27:23;5.13;;;2.53;;
7817;SDS011;3954;52.624;9.212;2023-06-14T13:29:50;3.40;;;2.33;;
7817;SDS011;3954;52.624;9.212;2023-06-14T13:32:16;2.87;;;2.67;;
7817;SDS011;3954;52.624;9.212;2023-06-14T13:34:41;4.93;;;2.90;;
7817;SDS011;3954;52.624;9.212;2023-06-14T13:37:09;7.93;;;2.80;;
7817;SDS011;3954;52.624;9.212;2023-06-14T13:39:35;3.47;;;2.40;;
7817;SDS011;3954;52.624;9.212;2023-06-14T13:42:02;6.47;;;2.60;;
7817;SDS011;3954;52.624;9.212;2023-06-14T13:44:28;3.40;;;2.50;;
7817;SDS011;3954;52.624;9.212;2023-06-14T13:46:54;3.30;;;2.50;;
7817;SDS011;3954;52.624;9.212;2023-06-14T13:49:20;5.27;;;2.60;;
7817;SDS011;3954;52.624;9.212;2023-06-14T13:51:46;4.10;;;2.70;;
7817;SDS011;3954;52.624;9.212;2023-06-14T13:54:14;4.33;;;2.50;;
7817;SDS011;3954;52.624;9.212;2023-06-14T13:56:40;3.40;;;2.70;;
7817;SDS011;3954;52.624;9.212;2023-06-14T13:59:06;5.40;;;2.60;;
7817;SDS011;3954;52.624;9.212;2023-06-14T14:01:32;3.97;;;2.47;;
7817;SDS011;3954;52.624;9.212;2023-06-14T14:03:58;4.73;;;2.60;;
7817;SDS011;3954;52.624;9.212;2023-06-14T14:06:25;4.00;;;2.40;;
7817;SDS011;3954;52.624;9.212;2023-06-14T14:08:51;3.73;;;2.60;;
7817;SDS011;3954;52.624;9.212;2023-06-14T14:11:19;5.83;;;2.77;;
7817;SDS011;3954;52.624;9.212;2023-06-14T14:13:45;3.40;;;2.33;;
7817;SDS011;3954;52.624;9.212;2023-06-14T14:16:12;3.37;;;2.37;;
7817;SDS011;3954;52.624;9.212;2023-06-14T14:18:38;3.10;;;2.50;;
7817;SDS011;3954;52.624;9.212;2023-06-14T14:21:04;3.97;;;2.53;;
7817;SDS011;3954;52.624;9.212;2023-06-14T14:23:30;4.00;;;2.33;;
7817;SDS011;3954;52.624;9.212;2023-06-14T14:25:56;5.50;;;2.70;;
7817;SDS011;3954;52.624;9.212;2023-06-14T14:28:23;3.00;;;2.07;;
7817;SDS011;3954;52.624;9.212;2023-06-14T14:30:50;2.90;;;2.30;;
7817;SDS011;3954;52.624;9.212;2023-06-14T14:33:16;3.77;;;2.70;;
7817;SDS011;3954;52.624;9.212;2023-06-14T14:35:42;5.47;;;2.90;;
7817;SDS011;3954;52.624;9.212;2023-06-14T14:38:10;2.60;;;2.40;;
7817;SDS011;3954;52.624;9.212;2023-06-14T14:40:36;3.83;;;2.50;;
7817;SDS011;3954;52.624;9.212;2023-06-14T14:43:02;3.50;;;2.30;;
7817;SDS011;3954;52.624;9.212;2023-06-14T14:45:30;4.37;;;2.87;;
7817;SDS011;3954;52.624;9.212;2023-06-14T14:47:56;5.70;;;2.60;;
7817;SDS011;3954;52.624;9.212;2023-06-14T14:50:22;2.80;;;2.60;;
7817;SDS011;3954;52.624;9.212;2023-06-14T14:52:48;3.70;;;2.37;;
7817;SDS011;3954;52.624;9.212;2023-06-14T14:55:14;4.07;;;2.80;;
7817;SDS011;3954;52.624;9.212;2023-06-14T14:57:40;2.60;;;2.33;;
7817;SDS011;3954;52.624;9.212;2023-06-14T15:00:06;2.53;;;2.33;;
7817;SDS011;3954;52.624;9.212;2023-06-14T15:02:34;4.20;;;2.67;;
7817;SDS011;3954;52.624;9.212;2023-06-14T15:05:00;2.73;;;2.20;;
7817;SDS011;3954;52.624;9.212;2023-06-14T15:07:27;4.57;;;2.90;;
7817;SDS011;3954;52.624;9.212;2023-06-14T15:09:53;3.17;;;2.57;;
7817;SDS011;3954;52.624;9.212;2023-06-14T15:12:19;3.07;;;2.50;;